Date,TemperatureHighF,TemperatureAvgF,TemperatureLowF,DewpointHighF,DewpointAvgF,DewpointLowF,HumidityHigh,HumidityAvg,HumidityLow,PressureMaxIn,PressureMinIn,WindSpeedMaxMPH,WindSpeedAvgMPH,GustSpeedMaxMPH,PrecipitationSumIn
2013-1-1,27,21,12,20,13,6,83,70,57,30.17,30.01,7,0,7,0.00
2013-1-2,26,21,15,19,15,10,83,78,70,30.21,30.09,9,0,11,0.00
2013-1-3,29,22,14,25,17,6,84,78,70,30.17,30.07,9,0,10,0.00
2013-1-4,30,27,23,24,20,17,83,76,65,30.20,30.03,12,1,12,0.00
2013-1-5,32,25,14,29,21,10,88,83,73,30.30,30.02,6,1,7,0.00
2013-1-6,36,33,32,31,29,25,88,84,76,30.27,29.90,14,1,14,0.00
2013-1-7,34,31,29,26,24,22,80,75,69,30.38,30.14,13,3,13,0.00
2013-1-8,37,30,23,29,24,19,86,80,71,30.25,30.16,6,1,11,0.00
2013-1-9,46,38,28,34,28,25,86,69,47,30.44,30.02,22,2,22,0.07
2013-1-10,42,34,22,32,27,18,88,77,58,30.58,30.15,10,0,10,0.08
2013-1-11,56,44,35,52,41,32,97,88,75,30.16,29.74,12,2,13,0.58
2013-1-12,59,51,45,51,46,42,91,85,70,29.92,29.80,7,1,7,0.02
2013-1-13,48,38,30,46,35,26,91,90,89,30.05,29.70,11,0,12,0.69
2013-1-14,30,24,17,27,18,13,89,79,71,30.45,30.05,13,1,17,0.00
2013-1-15,30,22,13,22,16,10,87,79,66,30.46,30.15,3,0,3,0.01
2013-1-16,37,29,20,27,20,16,92,71,44,30.16,29.81,10,1,10,0.00
2013-1-17,36,30,20,30,21,8,85,68,55,30.32,29.95,15,1,15,0.00
2013-1-18,34,26,16,24,16,7,78,65,56,30.45,29.97,17,3,17,0.00
2013-1-19,47,42,34,35,30,24,71,64,57,29.98,29.56,16,4,16,0.00
2013-1-20,44,22,17,35,11,5,75,61,46,30.21,29.55,30,3,30,0.00
2013-1-21,18,13,4,13,6,-2,81,73,62,30.17,29.97,14,0,14,0.00
2013-1-22,10,5,-3,3,-3,-10,78,69,56,30.32,30.15,14,0,14,0.00
2013-1-23,18,11,3,9,4,-2,81,74,64,30.32,30.10,6,0,6,0.00
2013-1-24,20,13,8,10,4,-1,82,68,45,30.61,30.14,7,0,9,0.01
2013-1-25,20,18,13,16,12,5,87,77,65,30.52,30.02,6,0,6,0.00
2013-1-26,27,22,17,19,16,12,92,77,60,30.47,30.06,7,0,7,0.00
2013-1-27,30,21,11,27,15,7,88,79,64,30.49,30.09,11,1,12,0.00
2013-1-28,46,38,30,43,35,27,92,91,87,30.14,29.84,7,1,10,0.50
2013-1-29,40,37,35,38,35,33,93,92,92,30.00,29.80,7,1,9,0.23
2013-1-30,60,49,31,57,46,27,93,89,83,29.54,29.09,9,3,23,0.34
2013-1-31,30,22,17,23,15,10,85,75,63,29.90,29.29,5,2,21,0.00
2013-2-1,18,11,8,13,4,2,83,75,67,30.30,29.91,4,1,12,0.00
2013-2-2,24,16,6,19,11,2,89,80,75,30.24,29.95,6,1,6,0.00
2013-2-3,22,12,4,16,6,0,93,77,63,30.03,29.87,16,0,16,0.00
2013-2-4,17,17,17,8,8,8,67,67,67,30.03,29.80,0,0,0,0.00
2013-2-5,27,21,17,22,14,8,86,74,67,29.98,29.81,6,1,6,0.00
2013-2-6,31,26,22,22,19,14,86,74,57,30.31,29.98,6,0,6,0.07
2013-2-7,39,29,25,29,21,16,85,72,66,30.27,29.83,4,0,5,0.00
2013-2-8,30,29,29,26,26,26,88,88,85,30.30,29.77,3,0,3,0.00
2013-2-9,31,28,15,26,22,12,88,80,59,30.47,30.27,6,1,6,0.04
2013-2-10,40,32,22,37,26,18,92,80,64,30.27,29.66,8,1,8,0.08
2013-2-11,44,37,31,42,30,25,94,78,68,29.89,29.54,19,4,19,0.04
2013-2-12,32,30,27,26,23,20,79,74,70,30.05,29.89,12,1,12,0.00
2013-2-13,40,31,26,27,24,21,84,74,57,29.93,29.72,7,0,7,0.00
2013-2-14,39,35,29,34,30,25,92,81,74,29.85,29.67,17,2,17,0.00
2013-2-15,34,27,20,28,17,12,80,66,54,30.14,29.85,12,1,14,0.00
2013-2-16,26,20,15,19,14,9,84,76,56,30.11,29.99,11,0,11,0.00
2013-2-17,24,17,9,15,8,4,92,69,49,30.23,30.08,10,0,14,0.00
2013-2-18,46,33,15,38,22,10,81,66,54,30.22,29.56,13,3,14,0.02
2013-2-19,43,28,17,40,22,10,92,80,69,29.96,29.40,17,3,17,0.10
2013-2-20,22,20,15,16,11,7,81,70,62,30.26,29.96,15,1,15,0.00
2013-2-21,26,22,21,18,15,14,81,74,65,30.40,30.23,6,0,11,0.00
2013-2-22,33,27,22,31,24,17,92,86,80,30.26,29.89,10,1,10,0.00
2013-2-23,34,30,22,30,22,17,89,73,62,29.93,29.86,7,1,12,0.06
2013-2-24,36,28,21,26,22,17,92,77,64,30.16,29.91,11,0,11,0.00
2013-2-25,40,29,15,28,21,12,88,74,56,30.25,30.09,6,0,6,0.00
2013-2-26,35,32,27,31,26,20,91,81,68,30.10,29.47,8,0,9,0.02
2013-2-27,33,33,33,31,31,31,91,91,91,29.47,29.44,0,0,0,0.00
2013-2-28,36,33,30,33,30,25,92,87,79,29.96,29.55,2,0,13,0.00
2013-3-1,30,26,25,24,21,19,82,79,74,30.12,29.96,1,0,10,0.00
2013-3-2,27,25,22,20,18,16,81,77,72,30.10,30.06,1,0,7,0.00
2013-3-3,30,23,16,16,15,11,83,71,55,30.08,30.01,2,0,14,0.01
2013-3-4,35,26,11,20,16,7,92,65,47,30.17,30.08,5,0,5,0.01
2013-3-5,36,28,19,25,21,14,92,75,60,30.14,29.83,6,0,6,0.02
2013-3-6,39,32,26,30,26,21,85,78,67,30.13,29.85,7,0,7,0.02
2013-3-7,36,33,26,30,26,18,85,75,64,30.40,30.20,1,0,7,0.00
2013-3-8,43,31,19,28,22,15,87,72,54,30.51,30.40,1,0,5,0.00
2013-3-9,43,40,24,32,30,21,89,69,60,30.41,30.01,9,1,10,0.00
2013-3-10,60,51,38,46,39,32,76,63,55,30.01,29.76,13,3,13,0.01
2013-3-11,56,48,37,48,43,32,92,81,60,29.77,29.43,15,4,15,0.23
2013-3-12,37,34,30,32,28,24,85,80,73,29.92,29.67,18,1,19,0.00
2013-3-13,32,28,24,27,20,13,89,72,58,30.21,29.85,16,2,16,0.00
2013-3-14,41,31,20,23,19,14,82,61,45,30.27,30.08,12,1,13,0.00
2013-3-15,40,35,29,33,29,20,89,78,60,30.08,29.82,9,0,9,0.00
2013-3-16,34,30,28,31,26,23,89,84,77,30.05,29.75,7,0,7,0.00
2013-3-17,33,27,19,24,17,14,83,69,53,30.27,30.04,12,0,12,0.00
2013-3-18,35,30,22,32,26,15,90,84,73,30.18,29.55,12,1,12,0.00
2013-3-19,34,26,23,31,19,14,89,73,64,29.95,29.61,18,2,19,0.00
2013-3-20,28,24,17,19,14,9,76,66,57,29.96,29.90,17,1,17,0.00
2013-3-21,31,24,15,23,18,10,84,77,65,29.95,29.88,15,1,15,0.00
2013-3-22,40,31,26,24,21,17,78,67,53,30.03,29.94,10,1,14,0.00
2013-3-23,36,29,21,26,22,17,92,75,63,30.12,30.02,6,0,6,0.00
2013-3-24,36,30,22,27,23,18,87,75,57,30.04,29.62,9,1,9,0.00
2013-3-25,40,35,31,29,26,23,78,71,59,29.92,29.56,12,1,13,0.00
2013-3-26,45,36,32,32,28,26,85,74,55,30.12,29.92,12,1,16,0.00
2013-3-27,47,38,30,30,27,24,85,67,47,30.21,30.11,15,2,16,0.00
2013-3-28,52,40,30,31,26,23,83,59,40,30.26,30.20,15,1,15,0.00
2013-3-29,52,41,26,27,24,20,89,52,35,30.29,30.19,7,0,7,0.00
2013-3-30,55,41,24,32,26,20,89,57,30,30.22,29.90,10,1,10,0.00
2013-3-31,58,46,36,44,35,28,87,65,40,29.90,29.59,18,1,18,0.02
2013-4-1,39,32,26,29,18,14,77,55,38,30.11,29.69,16,2,18,0.00
2013-4-2,41,31,23,18,16,13,79,55,36,30.26,30.10,15,1,17,0.00
2013-4-3,42,32,22,19,16,13,81,54,34,30.43,30.25,11,0,12,0.00
2013-4-4,55,40,27,28,20,15,66,45,27,30.36,29.93,11,1,11,0.00
2013-4-5,48,41,33,30,24,20,77,52,33,30.20,29.92,12,0,12,0.00
2013-4-6,52,41,31,30,25,18,72,53,37,30.25,29.74,12,2,12,0.00
2013-4-7,58,51,37,46,38,29,77,61,41,30.03,29.58,16,3,16,0.00
2013-4-8,65,46,35,56,40,30,89,79,59,30.03,29.67,15,1,15,0.04
2013-4-9,55,48,43,48,43,39,92,84,72,30.07,29.86,7,0,8,0.00
2013-4-10,47,43,39,43,40,36,92,90,87,29.98,29.83,11,0,11,0.00
2013-4-11,39,38,36,37,35,34,91,90,90,29.97,29.60,9,1,10,0.00
2013-4-12,41,39,36,39,35,33,92,87,75,29.76,29.52,9,1,10,0.00
2013-4-13,42,38,35,38,31,27,88,74,60,29.99,29.76,17,1,17,0.00
2013-4-14,48,39,32,38,32,26,85,76,63,30.11,29.91,7,0,11,0.00
2013-4-15,60,44,39,50,37,34,84,77,67,29.94,29.88,15,1,15,0.00
2013-4-16,61,53,47,53,43,34,90,70,40,30.20,29.83,5,1,15,0.06
2013-4-17,58,50,40,44,39,31,89,68,47,30.31,29.98,7,1,7,0.04
2013-4-18,75,58,44,65,54,41,92,86,65,29.98,29.49,20,4,28,0.40
2013-4-19,59,44,34,56,38,29,92,80,64,29.76,29.29,17,3,17,0.35
2013-4-20,40,34,28,31,23,18,92,64,49,30.45,29.76,15,1,17,0.02
2013-4-21,48,36,23,31,25,20,89,65,45,30.62,30.45,10,1,10,0.00
2013-4-22,62,47,31,37,31,23,88,57,27,30.46,30.15,8,1,8,0.00
2013-4-23,70,55,40,53,43,33,91,66,43,30.15,29.75,14,2,15,0.51
2013-4-24,55,39,34,52,35,28,91,86,72,30.15,29.71,12,1,12,0.35
2013-4-25,51,40,32,40,32,27,87,73,47,30.35,30.09,16,1,16,0.04
2013-4-26,58,45,30,40,33,26,90,66,43,30.45,30.32,13,2,13,0.00
2013-4-27,69,59,36,43,39,33,90,49,28,30.34,30.07,9,1,9,0.00
2013-4-28,54,52,50,52,46,35,92,78,53,30.07,29.81,4,0,4,0.20
2013-4-29,69,60,52,56,53,50,93,79,58,29.91,29.81,6,0,6,0.00
2013-4-30,73,62,53,58,54,50,92,75,58,30.03,29.89,13,2,16,0.03
2013-5-1,81,68,53,60,55,49,89,65,44,30.18,30.03,10,1,10,0.00
2013-5-2,78,66,54,58,51,45,81,60,42,30.20,30.08,10,1,10,0.00
2013-5-3,77,66,56,58,47,38,67,52,29,30.09,30.00,12,1,12,0.00
2013-5-4,71,63,54,49,44,37,76,52,30,30.08,30.00,10,0,10,0.00
2013-5-5,73,61,51,48,42,37,74,51,28,30.08,29.98,6,0,6,0.00
2013-5-6,74,61,44,52,45,38,83,57,40,30.03,29.94,5,0,6,0.00
2013-5-7,76,63,48,56,50,41,85,65,43,30.02,29.95,5,0,6,0.00
2013-5-8,80,64,50,57,51,47,92,66,37,29.98,29.89,5,0,5,0.00
2013-5-9,79,59,50,57,50,46,92,77,37,29.93,29.89,5,0,5,0.00
2013-5-10,68,62,54,61,56,47,91,81,72,29.76,29.70,7,1,10,0.19
2013-5-11,61,47,39,46,40,33,88,78,50,29.89,29.71,4,1,21,0.00
2013-5-12,48,42,32,34,29,26,84,59,47,30.09,29.86,18,2,18,0.00
2013-5-13,55,42,28,34,27,25,87,59,32,30.17,30.08,10,0,10,0.00
2013-5-14,77,59,41,56,43,31,77,56,42,30.08,29.67,16,1,16,0.00
2013-5-15,81,71,57,59,51,43,86,53,33,29.75,29.54,16,1,17,0.00
2013-5-16,82,70,49,53,48,41,85,48,31,29.99,29.74,13,0,17,0.00
2013-5-17,74,62,49,50,45,40,73,55,38,30.10,29.99,5,0,5,0.00
2013-5-18,79,66,54,56,49,42,75,54,39,30.11,29.98,5,0,6,0.00
2013-5-19,84,70,53,65,57,46,82,64,48,30.00,29.84,4,0,4,0.00
2013-5-20,88,80,62,70,66,58,89,63,46,29.88,29.72,14,1,14,0.00
2013-5-21,82,75,67,67,63,60,86,67,50,29.76,29.66,11,0,11,0.00
2013-5-22,78,68,62,64,62,59,91,80,53,29.70,29.57,11,1,12,0.24
2013-5-23,62,53,43,59,50,40,92,89,82,30.14,29.65,10,0,10,0.11
2013-5-24,57,46,39,41,38,33,90,73,49,30.34,30.14,10,0,10,0.00
2013-5-25,65,51,36,43,38,33,90,65,40,30.39,30.26,5,0,6,0.00
2013-5-26,68,54,37,46,38,33,92,59,33,30.33,30.19,6,0,6,0.00
2013-5-27,58,50,42,49,43,36,92,78,60,30.24,29.96,4,0,5,0.52
2013-5-28,74,63,51,70,60,49,95,89,76,29.97,29.76,7,0,7,0.26
2013-5-29,80,73,65,67,64,60,89,75,55,29.95,29.72,11,0,11,0.01
2013-5-30,84,73,62,72,66,59,92,80,60,30.01,29.90,13,0,13,0.05
2013-5-31,79,71,68,68,66,64,92,84,69,29.94,29.79,9,1,10,0.04
2013-6-1,76,69,64,67,63,61,92,83,67,29.81,29.63,7,1,7,0.00
2013-6-2,69,64,52,63,56,44,86,75,66,29.96,29.61,13,0,13,0.01
2013-6-3,68,55,41,48,42,37,87,64,43,30.07,29.96,5,0,5,0.01
2013-6-4,72,59,45,52,46,37,92,65,41,30.17,30.06,4,0,6,0.00
2013-6-5,72,61,48,52,45,35,77,57,40,30.15,29.95,5,0,5,0.00
2013-6-6,68,60,54,56,50,43,81,68,60,29.96,29.81,5,0,5,0.00
2013-6-7,61,56,51,54,50,47,89,82,74,29.89,29.83,4,0,4,0.00
2013-6-8,73,63,55,58,54,51,88,73,53,30.04,29.88,3,0,3,0.00
2013-6-9,74,67,58,62,57,53,89,72,57,30.07,29.90,6,0,6,0.00
2013-6-10,71,65,61,68,62,56,92,90,69,29.91,29.68,3,0,3,0.02
2013-6-11,79,70,64,67,64,61,93,81,62,29.85,29.73,8,0,9,0.48
2013-6-12,78,69,61,70,64,58,92,85,74,29.89,29.58,5,0,5,0.02
2013-6-13,77,68,60,64,60,56,92,75,53,29.89,29.49,8,0,8,0.06
2013-6-14,77,65,57,59,56,52,92,73,45,30.04,29.89,5,0,5,0.00
2013-6-15,76,64,54,63,58,51,91,82,59,30.05,29.86,3,0,5,0.00
2013-6-16,81,70,61,66,61,53,92,76,44,29.87,29.73,11,1,12,0.27
2013-6-17,85,71,57,64,59,54,92,68,42,29.89,29.78,9,0,9,0.00
2013-6-18,72,63,51,59,53,43,89,70,44,30.04,29.83,5,0,5,0.02
2013-6-19,74,61,45,56,49,41,92,68,47,30.14,30.04,5,0,5,0.00
2013-6-20,80,66,52,61,54,49,92,67,46,30.18,30.09,5,0,6,0.00
2013-6-21,83,71,58,66,60,54,90,70,50,30.16,29.99,5,0,6,0.00
2013-6-22,84,75,66,74,67,59,85,76,68,30.03,29.92,7,0,8,0.00
2013-6-23,87,77,67,71,67,64,90,73,53,30.02,29.91,7,0,7,0.00
2013-6-24,84,75,66,71,68,62,90,78,62,30.01,29.86,10,0,10,0.02
2013-6-25,83,73,67,72,68,63,92,84,67,29.97,29.76,9,0,9,0.77
2013-6-26,79,71,65,72,67,63,93,86,72,29.84,29.69,6,0,6,0.14
2013-6-27,80,70,66,73,67,63,93,90,73,29.72,29.57,5,0,5,3.29
2013-6-28,74,66,61,69,63,59,93,90,75,29.59,29.46,9,0,9,0.27
2013-6-29,72,66,61,65,62,57,93,87,76,29.70,29.49,3,0,4,0.00
2013-6-30,77,68,60,64,59,52,92,75,53,29.90,29.69,6,0,6,0.01
2013-7-1,66,61,57,60,55,48,90,80,64,30.03,29.89,5,0,5,0.08
2013-7-2,74,65,58,65,60,55,91,83,72,30.03,29.98,4,0,5,0.02
2013-7-3,79,70,60,68,63,57,92,81,63,30.06,29.99,4,0,5,0.00
2013-7-4,77,71,66,66,64,60,92,79,64,30.09,30.02,4,0,5,0.00
2013-7-5,81,73,67,69,66,62,92,78,53,30.07,29.99,3,0,3,0.00
2013-7-6,80,72,67,70,68,64,92,85,68,30.06,29.94,3,0,4,0.05
2013-7-7,78,72,68,70,68,65,92,85,70,29.99,29.91,4,0,6,0.01
2013-7-8,80,72,67,74,69,65,92,88,78,29.99,29.92,7,0,14,0.37
2013-7-9,85,75,69,75,70,67,93,85,66,29.94,29.80,13,0,19,0.44
2013-7-10,84,66,0,76,60,0,93,80,55,30.01,29.72,10,0,12,0.01
2013-7-11,79,68,59,61,57,55,90,71,50,30.03,29.90,4,0,5,0.00
2013-7-12,79,67,55,64,59,52,92,76,52,30.13,30.03,4,0,4,0.00
2013-7-13,81,71,59,67,62,56,92,75,48,30.17,30.09,4,0,5,0.00
2013-7-14,85,75,63,73,68,60,92,79,59,30.21,30.15,3,0,3,0.00
2013-7-15,88,78,69,78,72,66,92,81,62,30.24,30.16,6,0,6,0.00
2013-7-16,89,81,75,79,74,71,90,78,62,30.26,30.17,6,0,6,0.00
2013-7-17,90,81,72,79,74,69,92,81,65,30.23,30.09,5,0,5,0.00
2013-7-18,90,81,72,77,73,68,92,78,55,30.11,29.90,9,0,9,0.00
2013-7-19,90,83,73,76,73,68,86,73,57,29.91,29.66,12,0,12,0.19
2013-7-20,83,75,66,70,66,62,92,76,50,29.87,29.66,7,0,9,0.05
2013-7-21,80,68,62,67,63,58,89,85,59,29.96,29.87,1,0,4,0.00
2013-7-22,80,72,68,70,66,64,90,81,64,29.90,29.71,2,0,2,0.00
2013-7-23,82,70,59,71,64,51,91,82,66,29.85,29.61,9,0,9,0.09
2013-7-24,71,62,55,57,52,48,87,70,55,30.02,29.85,5,0,5,0.00
2013-7-25,74,62,49,60,54,46,92,74,51,30.08,30.01,3,0,3,0.00
2013-7-26,76,67,56,62,58,52,90,75,55,30.06,29.86,4,0,5,0.02
2013-7-27,71,64,54,66,60,50,92,88,79,29.86,29.69,8,0,8,0.91
2013-7-28,62,57,51,55,52,48,91,83,70,29.96,29.80,10,0,10,0.00
2013-7-29,68,60,55,58,54,51,88,80,64,30.16,29.94,6,0,7,0.00
2013-7-30,75,64,51,64,56,48,92,78,55,30.21,30.08,5,0,5,0.00
2013-7-31,73,67,63,67,64,59,92,88,74,30.08,29.84,7,0,7,0.26
2013-8-1,76,67,59,64,60,54,92,81,54,29.89,29.83,8,0,8,0.01
2013-8-2,70,63,54,65,58,51,92,84,69,29.90,29.81,6,0,7,0.00
2013-8-3,76,67,58,62,58,54,92,74,50,30.02,29.86,5,0,6,0.01
2013-8-4,71,63,55,58,54,51,88,75,57,30.12,30.01,6,0,7,0.00
2013-8-5,69,62,54,60,56,50,89,79,60,30.08,29.92,3,0,3,0.00
2013-8-6,76,69,63,68,63,58,89,81,71,29.93,29.84,7,0,7,0.00
2013-8-7,80,71,65,72,67,62,92,87,73,29.89,29.76,6,0,6,0.12
2013-8-8,75,69,64,68,63,58,91,82,69,29.97,29.85,5,0,6,0.00
2013-8-9,78,69,60,64,59,56,92,73,49,29.97,29.90,9,0,9,0.00
2013-8-10,74,67,61,63,60,57,92,79,60,30.09,29.97,3,0,3,0.00
2013-8-11,77,67,57,63,59,54,91,75,54,30.09,29.99,6,0,12,0.00
2013-8-12,70,65,63,68,62,59,93,90,80,30.01,29.80,4,0,4,1.61
2013-8-13,65,60,53,62,53,46,92,78,58,30.03,29.79,6,0,10,0.01
2013-8-14,68,60,48,54,50,44,88,72,53,30.14,30.03,4,0,5,0.00
2013-8-15,70,59,48,57,52,45,92,77,53,30.15,30.06,4,0,5,0.00
2013-8-16,75,64,52,60,55,49,92,76,51,30.17,30.08,4,0,4,0.00
2013-8-17,76,64,52,62,56,49,92,77,51,30.24,30.15,4,0,5,0.00
2013-8-18,68,58,55,66,55,52,92,91,89,30.19,30.14,3,0,3,0.00
2013-8-22,78,74,67,70,67,63,89,80,70,30.00,29.95,6,0,6,0.00
2013-8-23,78,68,58,66,57,49,90,70,37,30.16,29.99,4,0,5,0.00
2013-8-24,78,66,54,64,58,51,92,78,55,30.27,30.16,3,0,3,0.00
2013-8-25,83,70,56,67,61,53,92,75,53,30.27,30.10,8,0,8,0.00
2013-8-26,83,75,65,73,67,60,89,77,66,30.10,29.92,9,0,9,0.00
2013-8-27,81,75,71,76,72,68,92,89,83,29.96,29.76,5,0,6,0.41
2013-8-28,80,75,68,74,72,65,93,88,79,29.96,29.72,4,0,4,0.04
2013-8-29,83,73,64,73,68,62,93,84,64,30.02,29.94,4,0,4,0.00
2013-8-30,84,74,64,72,68,61,93,81,63,29.95,29.69,8,0,8,0.00
2013-8-31,79,73,67,71,68,63,91,83,69,29.79,29.68,4,0,4,0.00
2013-9-1,79,72,67,73,67,64,90,86,76,29.80,29.66,4,0,4,0.01
2013-9-2,74,68,59,68,61,51,90,77,61,29.89,29.67,10,0,12,0.00
2013-9-3,72,63,57,58,54,51,87,73,56,29.99,29.87,6,0,7,0.00
2013-9-4,78,65,52,63,57,50,92,76,57,30.06,29.97,14,0,14,0.00
2013-9-5,68,60,52,60,51,47,89,73,48,30.23,30.03,6,0,6,0.00
2013-9-6,72,59,45,57,50,42,92,73,47,30.26,30.03,4,0,4,0.00
2013-9-7,79,66,55,69,61,50,89,83,64,30.04,29.85,6,0,10,0.01
2013-9-8,73,67,55,65,59,49,89,77,58,30.04,29.88,7,0,7,0.00
2013-9-9,75,64,52,70,60,48,92,89,82,30.03,29.85,2,0,2,0.31
2013-9-10,89,78,69,73,70,66,92,78,50,29.96,29.84,5,0,6,0.00
2013-9-11,87,76,69,74,69,65,92,79,63,29.99,29.84,9,0,9,0.08
2013-9-12,76,67,55,66,60,48,92,79,51,29.93,29.80,7,0,12,0.00
2013-9-13,58,53,42,49,45,38,87,74,59,30.12,29.92,9,0,9,0.00
2013-9-14,66,51,37,48,42,34,91,73,44,30.18,30.07,5,0,5,0.00
2013-9-15,62,51,46,54,47,43,98,85,67,30.10,30.03,7,0,7,0.22
2013-9-16,60,54,44,54,50,42,99,86,58,30.36,30.10,4,0,4,0.01
2013-9-17,67,50,36,54,43,35,100,80,46,30.40,30.20,5,0,5,0.00
2013-9-18,75,58,45,57,50,43,99,78,41,30.20,30.00,6,1,6,0.00
2013-9-19,77,67,57,68,63,56,99,87,71,30.01,29.91,4,1,4,0.00
2013-9-20,78,70,66,71,68,65,99,93,75,29.86,29.69,3,1,7,0.31
2013-9-21,67,61,55,64,55,46,100,83,53,29.83,29.64,2,1,7,0.04
2013-9-22,58,52,43,46,43,41,93,73,57,30.06,29.84,2,0,6,0.00
2013-9-23,61,47,39,47,43,38,99,86,54,30.17,30.06,1,0,4,0.00
2013-9-24,68,51,39,53,46,38,100,83,54,30.14,29.97,4,0,4,0.00
2013-9-25,71,54,43,56,49,42,100,84,54,29.99,29.91,4,0,4,0.00
2013-9-26,78,57,42,58,48,41,100,77,35,30.11,29.97,4,0,4,0.00
2013-9-27,76,58,44,61,51,43,100,82,48,30.21,30.10,5,0,5,0.00
2013-9-28,78,62,50,61,55,49,100,80,42,30.17,29.97,5,1,5,0.00
2013-9-29,62,60,58,61,57,53,100,91,74,29.98,29.92,4,1,4,0.18
2013-9-30,70,60,52,59,56,50,100,88,53,29.98,29.88,4,0,5,0.00
2013-10-1,70,58,48,64,56,47,100,93,77,29.99,29.91,7,1,7,0.00
2013-10-2,80,65,53,61,54,41,100,73,28,30.04,29.91,4,0,4,0.00
2013-10-3,76,64,52,68,60,50,98,89,74,30.02,29.88,6,1,6,0.00
2013-10-4,78,69,64,68,66,62,99,88,70,29.98,29.89,3,1,4,0.00
2013-10-5,72,67,63,69,66,63,100,97,88,29.99,29.81,4,1,4,1.16
2013-10-6,68,64,54,68,63,53,100,97,88,29.81,29.57,10,1,11,0.17
2013-10-7,58,50,43,54,47,42,100,89,63,30.11,29.65,11,1,11,0.01
2013-10-8,68,51,39,54,44,39,100,80,45,30.26,30.10,5,1,6,0.00
2013-10-9,46,45,43,45,44,42,98,96,94,30.24,30.23,2,0,2,0.00
2013-10-10,71,53,41,58,46,40,100,78,41,30.21,30.10,2,0,5,0.00
2013-10-11,74,54,39,57,46,39,100,80,42,30.14,30.04,4,0,4,0.00
2013-10-12,77,60,47,61,53,46,100,80,40,30.08,29.99,4,0,5,0.00
2013-10-13,68,58,45,59,48,37,99,72,35,30.33,30.03,5,1,5,0.00
2013-10-14,65,50,42,46,43,41,99,79,46,30.40,30.24,6,0,6,0.00
2013-10-15,62,52,40,60,50,39,100,93,83,30.25,29.79,6,1,6,0.02
2013-10-16,61,55,51,60,51,44,99,86,65,29.88,29.76,10,1,10,0.00
2013-10-17,51,49,46,49,47,44,99,94,87,29.87,29.73,5,1,5,0.19
2013-10-18,62,50,40,48,43,40,99,81,46,29.89,29.81,7,1,7,0.01
2013-10-19,45,42,39,44,41,38,99,95,88,29.89,29.74,6,1,7,0.19
2013-10-20,58,47,38,45,41,37,99,80,51,29.89,29.80,9,1,10,0.02
2013-10-21,55,49,40,48,43,36,93,81,64,29.84,29.77,9,2,12,0.02
2013-10-22,50,40,32,37,32,29,91,72,49,29.91,29.83,10,1,10,0.00
2013-10-23,48,38,30,36,31,26,99,80,47,29.92,29.81,6,1,7,0.00
2013-10-24,48,37,31,34,31,26,97,82,48,30.17,29.91,7,1,7,0.00
2013-10-25,47,38,31,36,31,28,98,79,54,30.32,30.10,7,1,7,0.00
2013-10-26,49,42,35,40,33,28,97,70,56,30.10,29.76,12,2,12,0.05
2013-10-27,52,39,31,38,33,30,99,82,47,30.07,29.97,8,1,8,0.01
2013-10-28,50,40,30,41,35,29,99,83,67,30.38,30.01,5,1,5,0.00
2013-10-29,50,42,34,40,35,31,90,77,63,30.43,30.23,4,0,4,0.00
2013-10-30,64,47,32,51,40,31,100,80,49,30.23,29.92,6,1,6,0.13
2013-10-31,61,59,52,61,58,51,100,98,96,29.92,29.12,15,3,15,1.16
2013-11-1,60,48,45,60,45,40,99,87,77,29.64,29.09,13,2,13,0.06
2013-11-2,46,43,34,44,41,32,100,92,83,30.09,29.63,6,1,6,0.17
2013-11-3,44,36,30,37,33,29,100,89,67,30.44,30.09,4,0,4,0.00
2013-11-4,48,40,33,36,33,29,95,76,47,30.46,30.28,6,1,6,0.00
2013-11-5,53,49,43,48,44,36,91,83,74,30.34,30.14,6,2,7,0.00
2013-11-6,55,51,42,52,47,40,96,86,68,30.14,29.76,18,3,18,0.11
2013-11-7,44,39,34,40,32,26,96,77,52,30.14,29.96,11,2,11,0.01
2013-11-8,45,35,30,32,29,25,98,79,47,30.27,30.11,6,1,9,0.00
2013-11-9,56,47,37,41,36,30,86,67,53,30.16,29.78,13,3,13,0.01
2013-11-10,47,41,30,41,32,28,95,69,54,30.27,29.88,16,2,16,0.00
2013-11-11,43,36,27,39,32,22,96,86,73,30.32,30.02,7,2,7,0.13
2013-11-12,33,27,22,23,20,17,89,75,55,30.55,30.32,10,1,10,0.01
2013-11-13,40,29,18,25,18,10,95,68,31,30.56,30.16,12,2,12,0.01
2013-11-14,51,40,29,26,22,18,70,50,35,30.17,29.97,13,4,13,0.00
2013-11-15,50,43,37,31,28,23,67,55,45,30.05,29.98,9,3,9,0.00
2013-11-16,56,46,35,53,42,30,93,85,67,30.09,29.76,16,2,16,0.00
2013-11-17,62,57,46,60,54,41,98,91,71,29.77,29.20,19,5,21,0.61
2013-11-18,46,38,34,41,30,24,83,72,68,30.13,29.46,12,3,17,0.00
2013-11-19,41,34,26,25,23,21,90,66,47,30.40,30.13,7,1,7,0.00
2013-11-20,45,36,23,33,27,22,97,72,43,30.44,30.22,11,2,11,0.00
2013-11-21,46,43,40,43,38,29,99,83,63,30.27,30.15,9,2,11,0.28
2013-11-22,44,39,26,44,37,24,100,93,77,30.36,30.11,10,1,10,0.03
2013-11-23,29,24,17,25,18,8,97,78,52,30.53,30.27,13,2,13,0.00
2013-11-24,25,18,12,15,11,8,88,74,53,30.62,30.43,7,1,7,0.00
2013-11-25,30,25,19,25,16,10,86,70,53,30.43,30.09,13,4,13,0.00
2013-11-26,34,31,28,29,27,24,92,86,79,30.11,29.93,9,2,9,0.00
2013-11-27,28,23,17,24,15,11,89,72,54,30.22,29.92,9,2,13,0.00
2013-11-28,27,22,15,22,16,11,91,80,64,30.43,30.22,9,1,9,0.00
2013-11-29,34,24,14,24,18,13,96,80,52,30.67,30.43,5,1,5,0.00
2013-11-30,44,34,27,29,26,21,82,71,54,30.54,30.09,9,2,9,0.00
2013-12-1,44,35,27,36,30,25,94,84,69,30.09,29.98,5,0,5,0.00
2013-12-2,38,32,25,32,26,21,95,80,56,29.99,29.88,4,0,4,0.00
2013-12-3,38,33,24,36,31,21,97,93,86,29.91,29.82,4,1,5,0.05
2013-12-4,57,46,37,55,44,36,99,95,90,29.88,29.58,11,2,11,0.04
2013-12-5,57,42,30,55,35,22,93,78,65,30.15,29.57,11,3,14,0.00
2013-12-6,30,26,20,23,18,13,78,73,67,30.41,30.12,6,1,6,0.00
2013-12-7,24,18,12,14,11,9,89,73,56,30.64,30.41,11,1,11,0.00
2013-12-8,28,19,10,27,15,8,96,86,71,30.62,29.98,6,1,6,0.00
2013-12-9,28,25,19,27,21,14,97,85,74,30.11,29.88,13,3,13,0.00
2013-12-10,22,17,10,16,10,2,84,72,49,30.20,29.97,12,3,13,0.00
2013-12-11,23,17,6,19,11,1,89,78,68,30.49,30.20,6,2,9,0.00
2013-12-12,21,13,2,16,6,0,91,75,44,30.48,30.19,11,2,11,0.00
2013-12-13,28,23,20,21,18,16,84,81,74,30.27,30.16,7,1,7,0.00
2013-12-14,23,19,17,19,17,14,93,90,77,30.27,29.83,9,2,9,0.00
2013-12-15,24,19,16,23,16,10,94,87,73,30.04,29.82,10,1,10,0.00
2013-12-16,23,13,1,14,9,-2,94,83,59,30.20,30.01,4,0,5,0.03
2013-12-17,26,21,13,23,19,11,97,91,83,30.02,29.90,10,1,12,0.00
2013-12-18,31,26,21,25,21,16,96,83,68,30.12,29.90,12,2,12,0.00
2013-12-19,41,33,25,34,28,17,96,81,70,29.98,29.86,7,1,9,0.25
2013-12-20,40,36,34,40,36,34,100,99,96,29.89,29.71,4,1,4,0.44
2013-12-21,34,33,32,34,33,32,100,99,98,29.86,29.64,6,1,6,0.58
2013-12-22,37,34,32,35,33,31,100,96,90,29.96,29.53,12,2,12,0.24
2013-12-23,32,28,19,31,23,12,97,83,67,30.32,29.95,7,1,9,0.00
2013-12-24,19,15,9,12,9,7,92,79,63,30.57,30.31,10,1,10,0.00
2013-12-25,24,19,8,22,16,6,94,89,80,30.52,30.11,10,2,10,0.00
2013-12-26,27,25,23,25,21,17,96,85,71,30.29,30.04,9,2,11,0.01
2013-12-27,39,33,25,32,28,22,91,85,74,30.32,30.06,10,2,11,0.07
2013-12-28,47,40,33,36,33,30,87,76,65,30.11,29.88,10,3,11,0.00
2013-12-29,42,34,22,33,28,16,93,80,67,30.01,29.68,12,2,12,0.00
2013-12-30,22,19,15,16,10,5,80,70,60,30.27,30.01,10,1,10,0.00
2013-12-31,20,16,14,15,12,9,90,81,70,30.34,30.08,10,2,10,0.00
2014-1-1,15,13,12,13,10,8,91,87,82,30.41,30.24,5,1,6,0.00
2014-1-2,16,11,2,12,8,-4,91,85,76,30.32,30.09,10,2,10,0.00